createdAt,value
2018-10-12T00:01:00.969Z,45.40
2018-10-12T00:03:33.130Z,42.00
2018-10-12T00:06:05.568Z,49.20
2018-10-12T00:08:38.069Z,42.00
2018-10-12T00:11:09.988Z,44.60
2018-10-12T00:13:41.826Z,43.20
2018-10-12T00:16:13.591Z,45.00
2018-10-12T00:18:45.711Z,46.00
2018-10-12T00:21:17.777Z,44.60
2018-10-12T00:23:49.575Z,47.60
2018-10-12T00:26:21.489Z,46.80
2018-10-12T00:28:53.401Z,42.60
2018-10-12T00:31:25.217Z,45.40
2018-10-12T00:33:57.128Z,48.40
2018-10-12T00:36:28.796Z,45.00
2018-10-12T00:39:00.818Z,51.80
2018-10-12T00:41:32.768Z,48.60
2018-10-12T00:44:05.101Z,48.20
2018-10-12T00:46:37.238Z,48.60
2018-10-12T00:49:08.914Z,46.20
2018-10-12T00:51:40.676Z,44.60
2018-10-12T00:54:13.175Z,48.80
2018-10-12T00:56:45.093Z,47.60
2018-10-12T00:59:16.721Z,44.80
2018-10-12T01:01:48.695Z,43.20
2018-10-12T01:04:20.994Z,46.40
2018-10-12T01:06:53.001Z,46.40
2018-10-12T01:09:24.827Z,44.60
2018-10-12T01:12:05.279Z,45.80
2018-10-12T01:14:37.408Z,43.20
2018-10-12T01:17:09.162Z,49.00
2018-10-12T01:19:41.255Z,44.40
2018-10-12T01:22:13.604Z,47.40
2018-10-12T01:24:45.928Z,46.00
2018-10-12T01:27:18.055Z,45.40
2018-10-12T01:29:50.294Z,48.20
2018-10-12T01:32:27.051Z,45.40
2018-10-12T01:34:58.951Z,46.00
2018-10-12T01:37:30.929Z,44.00
2018-10-12T01:40:02.947Z,46.60
2018-10-12T01:42:34.689Z,46.20
2018-10-12T01:45:06.975Z,44.00
2018-10-12T01:47:39.111Z,42.60
2018-10-12T01:50:11.085Z,51.00
2018-10-12T01:52:43.178Z,48.20
2018-10-12T01:55:15.162Z,46.40
2018-10-12T01:57:46.980Z,48.80
2018-10-12T02:00:19.324Z,46.20
2018-10-12T02:02:51.285Z,45.00
2018-10-12T02:05:23.404Z,43.00
2018-10-12T02:07:54.948Z,50.60
2018-10-12T02:10:27.125Z,52.20
2018-10-12T02:12:58.806Z,59.00
2018-10-12T02:15:30.808Z,56.60
2018-10-12T02:18:03.248Z,58.80
2018-10-12T02:20:35.683Z,55.40
2018-10-12T02:23:07.837Z,58.00
2018-10-12T02:25:40.197Z,55.80
2018-10-12T02:28:12.442Z,54.20
2018-10-12T02:30:44.586Z,56.40
2018-10-12T02:33:16.808Z,57.60
2018-10-12T02:35:48.415Z,55.40
2018-10-12T02:38:20.162Z,56.80
2018-10-12T02:40:51.753Z,55.80
2018-10-12T02:43:23.839Z,56.60
2018-10-12T02:45:55.668Z,55.40
2018-10-12T02:48:27.601Z,54.60
2018-10-12T02:50:59.550Z,54.60
2018-10-12T02:53:31.311Z,57.40
2018-10-12T02:56:02.968Z,54.40
2018-10-12T02:58:35.240Z,54.20
2018-10-12T03:01:07.233Z,57.60
2018-10-12T03:03:39.145Z,56.00
2018-10-12T03:06:10.994Z,54.40
2018-10-12T03:08:43.228Z,54.80
2018-10-12T03:11:15.168Z,52.20
2018-10-12T03:13:46.920Z,54.00
2018-10-12T03:16:18.919Z,58.20
2018-10-12T03:18:50.914Z,55.00
2018-10-12T03:21:22.639Z,54.20
2018-10-12T03:23:54.846Z,53.20
2018-10-12T03:26:26.398Z,56.60
2018-10-12T03:28:58.260Z,55.00
2018-10-12T03:31:30.112Z,57.00
2018-10-12T03:34:02.639Z,54.20
2018-10-12T03:36:34.794Z,53.40
2018-10-12T03:39:08.319Z,55.80
2018-10-12T03:41:39.955Z,56.00
2018-10-12T03:44:11.864Z,54.60
2018-10-12T03:46:43.729Z,56.40
2018-10-12T03:49:15.450Z,51.20
2018-10-12T03:51:47.386Z,56.40
2018-10-12T03:54:19.083Z,56.40
2018-10-12T03:56:50.778Z,54.20
2018-10-12T03:59:22.650Z,54.00
2018-10-12T04:01:54.866Z,52.20
2018-10-12T04:04:26.266Z,52.00
2018-10-12T04:06:57.955Z,52.20
2018-10-12T04:09:29.695Z,52.20
2018-10-12T04:12:01.675Z,52.60
2018-10-12T04:14:33.367Z,52.80
2018-10-12T04:17:05.433Z,52.00
2018-10-12T04:19:37.149Z,54.60
2018-10-12T04:22:09.172Z,55.00
2018-10-12T04:24:40.792Z,53.80
2018-10-12T04:27:12.703Z,49.80
2018-10-12T04:29:44.542Z,51.00
2018-10-12T04:32:17.360Z,57.60
2018-10-12T04:34:49.989Z,37.60
2018-10-12T04:37:21.659Z,44.20
2018-10-12T04:39:58.952Z,42.80
2018-10-12T04:42:31.113Z,49.40
2018-10-12T04:45:02.904Z,60.40
2018-10-12T04:47:35.033Z,59.20
2018-10-12T04:50:06.874Z,58.60
2018-10-12T04:52:39.367Z,64.80
2018-10-12T04:55:11.271Z,63.20
2018-10-12T04:57:43.109Z,61.40
2018-10-12T05:00:14.924Z,65.20
2018-10-12T05:02:46.755Z,66.80
2018-10-12T05:05:19.917Z,67.60
2018-10-12T05:07:52.169Z,63.60
2018-10-12T05:10:23.939Z,66.40
2018-10-12T05:12:56.020Z,68.60
2018-10-12T05:15:27.934Z,72.20
2018-10-12T05:17:59.266Z,76.20
2018-10-12T05:20:32.184Z,77.40
2018-10-12T05:23:04.028Z,77.00
2018-10-12T05:25:35.951Z,80.60
2018-10-12T05:28:07.926Z,80.80
2018-10-12T05:30:39.882Z,73.20
2018-10-12T05:33:12.021Z,80.80
2018-10-12T05:35:43.773Z,75.60
2018-10-12T05:38:15.731Z,71.20
2018-10-12T05:40:47.316Z,83.40
2018-10-12T05:43:19.227Z,76.00
2018-10-12T05:45:50.585Z,75.60
2018-10-12T05:48:31.849Z,75.00
2018-10-12T05:51:05.564Z,73.60
2018-10-12T05:53:38.395Z,65.60
2018-10-12T05:56:10.911Z,67.80
2018-10-12T05:58:43.914Z,64.00
2018-10-12T06:01:15.832Z,67.00
2018-10-12T06:03:47.690Z,60.00
2018-10-12T06:06:19.771Z,58.40
2018-10-12T06:08:51.731Z,61.20
2018-10-12T06:11:23.728Z,58.40
2018-10-12T06:13:56.003Z,59.80
2018-10-12T06:16:27.803Z,58.20
2018-10-12T06:18:59.715Z,54.60
2018-10-12T06:21:31.716Z,59.60
2018-10-12T06:24:03.771Z,57.80
2018-10-12T06:26:36.017Z,59.00
2018-10-12T06:29:08.076Z,60.80
2018-10-12T06:31:39.549Z,60.40
2018-10-12T06:34:12.517Z,58.20
2018-10-12T06:36:44.560Z,59.20
2018-10-12T06:39:16.480Z,58.20
2018-10-12T06:41:48.551Z,58.40
2018-10-12T06:44:20.474Z,55.80
2018-10-12T06:46:52.869Z,57.80
2018-10-12T06:49:25.147Z,57.60
2018-10-12T06:51:56.956Z,59.80
2018-10-12T06:54:28.858Z,58.40
2018-10-12T06:57:00.607Z,54.60
2018-10-12T06:59:32.499Z,55.20
2018-10-12T07:02:05.336Z,60.20
2018-10-12T07:04:37.393Z,59.60
2018-10-12T07:07:09.595Z,60.40
2018-10-12T07:09:41.451Z,58.00
2018-10-12T07:12:13.757Z,58.80
2018-10-12T07:14:46.175Z,60.20
2018-10-12T07:17:18.429Z,59.00
2018-10-12T07:19:50.409Z,59.00
2018-10-12T07:22:22.165Z,59.60
2018-10-12T07:24:54.199Z,59.60
2018-10-12T07:27:26.146Z,58.00
2018-10-12T07:29:58.810Z,60.00
2018-10-12T07:32:30.956Z,59.40
2018-10-12T07:35:02.625Z,60.60
2018-10-12T07:37:34.634Z,57.20
2018-10-12T07:40:06.740Z,59.00
2018-10-12T07:42:38.881Z,59.00
2018-10-12T07:45:10.818Z,53.80
2018-10-12T07:47:42.446Z,54.20
2018-10-12T07:50:14.511Z,60.20
2018-10-12T07:52:46.639Z,57.20
2018-10-12T07:55:18.343Z,57.40
2018-10-12T07:57:50.066Z,57.80
2018-10-12T08:00:21.974Z,56.80
2018-10-12T08:02:54.096Z,58.80
2018-10-12T08:05:26.318Z,54.40
2018-10-12T08:07:58.212Z,53.20
2018-10-12T08:10:30.491Z,57.80
2018-10-12T08:13:02.842Z,51.60
2018-10-12T08:15:36.397Z,50.80
2018-10-12T08:18:08.415Z,53.80
2018-10-12T08:20:40.423Z,55.00
2018-10-12T08:23:12.296Z,52.80
2018-10-12T08:25:44.266Z,49.60
2018-10-12T08:28:16.493Z,53.00
2018-10-12T08:30:48.994Z,47.00
2018-10-12T08:33:21.204Z,49.60
2018-10-12T08:35:54.416Z,48.80
2018-10-12T08:38:26.648Z,51.80
2018-10-12T08:41:00.127Z,49.60
2018-10-12T08:43:33.107Z,51.20
2018-10-12T08:46:04.830Z,53.00
2018-10-12T08:48:36.744Z,56.20
2018-10-12T08:51:08.747Z,54.20
2018-10-12T08:53:40.636Z,51.60
2018-10-12T08:56:12.764Z,52.20
2018-10-12T08:58:44.692Z,50.80
2018-10-12T09:01:16.850Z,54.60
2018-10-12T09:03:50.018Z,49.80
2018-10-12T09:06:21.917Z,51.40
2018-10-12T09:08:54.037Z,45.60
2018-10-12T09:11:26.784Z,49.20
2018-10-12T09:13:59.078Z,51.80
2018-10-12T09:16:31.182Z,45.20
2018-10-12T09:19:03.517Z,50.80
2018-10-12T09:21:35.671Z,51.60
2018-10-12T09:24:07.504Z,46.00
2018-10-12T09:26:39.620Z,49.00
2018-10-12T09:29:11.183Z,51.60
2018-10-12T09:31:43.160Z,52.00
2018-10-12T09:34:14.829Z,49.20
2018-10-12T09:36:46.876Z,50.80
2018-10-12T09:39:19.361Z,50.00
2018-10-12T09:41:51.489Z,49.40
2018-10-12T09:44:23.692Z,49.80
2018-10-12T09:46:55.381Z,53.40
2018-10-12T09:49:27.234Z,52.20
2018-10-12T09:51:59.346Z,53.00
2018-10-12T09:54:30.975Z,53.80
2018-10-12T09:57:07.533Z,52.00
2018-10-12T09:59:41.125Z,53.80
2018-10-12T10:02:17.990Z,58.00
2018-10-12T10:04:49.773Z,56.00
2018-10-12T10:07:21.820Z,53.80
2018-10-12T10:09:53.473Z,55.00
2018-10-12T10:12:25.619Z,55.00
2018-10-12T10:14:57.271Z,52.20
2018-10-12T10:17:29.432Z,53.60
2018-10-12T10:20:01.434Z,52.20
2018-10-12T10:22:35.186Z,52.60
2018-10-12T10:25:09.404Z,51.80
2018-10-12T10:27:43.613Z,50.60
2018-10-12T10:30:16.061Z,53.80
2018-10-12T10:32:47.818Z,53.60
2018-10-12T10:35:21.495Z,54.60
2018-10-12T10:37:53.136Z,51.80
2018-10-12T10:40:26.233Z,55.00
2018-10-12T10:42:59.218Z,53.80
2018-10-12T10:45:32.041Z,52.80
2018-10-12T10:48:04.058Z,53.40
2018-10-12T10:50:36.108Z,52.20
2018-10-12T10:53:08.128Z,53.20
2018-10-12T10:55:39.811Z,55.00
2018-10-12T10:58:11.501Z,52.00
2018-10-12T11:00:43.471Z,53.80
2018-10-12T11:03:15.658Z,53.20
2018-10-12T11:05:47.411Z,52.00
2018-10-12T11:08:20.927Z,51.60
2018-10-12T11:10:59.181Z,53.20
2018-10-12T11:13:43.263Z,50.20
2018-10-12T11:16:31.182Z,52.40
2018-10-12T11:19:14.860Z,50.60
2018-10-12T11:22:03.056Z,51.00
2018-10-12T11:24:51.576Z,46.20
2018-10-12T11:27:36.149Z,52.80
2018-10-12T11:30:21.619Z,47.00
2018-10-12T11:33:01.247Z,47.40
2018-10-12T11:35:34.462Z,51.20
2018-10-12T11:38:06.637Z,47.00
2018-10-12T11:40:38.404Z,48.80
2018-10-12T11:43:39.751Z,48.80
2018-10-12T11:46:12.054Z,50.20
2018-10-12T11:48:43.756Z,48.00
2018-10-12T11:51:17.564Z,49.20
2018-10-12T11:53:50.536Z,49.00
2018-10-12T11:56:22.343Z,48.00
2018-10-12T11:58:54.225Z,47.00
2018-10-12T12:01:26.283Z,46.00
2018-10-12T12:03:58.363Z,45.80
2018-10-12T12:06:30.178Z,46.40
2018-10-12T12:09:02.030Z,45.40
2018-10-12T12:11:33.629Z,46.60
2018-10-12T12:14:05.514Z,46.80
2018-10-12T12:16:37.666Z,47.80
2018-10-12T12:19:09.292Z,49.20
2018-10-12T12:21:41.190Z,46.00
2018-10-12T12:24:13.009Z,50.20
2018-10-12T12:26:44.799Z,48.00
2018-10-12T12:29:16.482Z,51.60
2018-10-12T12:31:48.269Z,50.20
2018-10-12T12:34:20.059Z,49.20
2018-10-12T12:36:52.415Z,48.60
2018-10-12T12:39:24.415Z,49.80
2018-10-12T12:41:56.243Z,48.80
2018-10-12T12:44:28.941Z,48.80
2018-10-12T12:47:00.875Z,46.00
2018-10-12T12:49:32.310Z,40.60
2018-10-12T12:52:03.697Z,35.60
2018-10-12T12:54:35.028Z,39.40
2018-10-12T12:57:07.053Z,42.00
2018-10-12T12:59:38.652Z,41.40
2018-10-12T13:02:10.907Z,43.20
2018-10-12T13:04:42.688Z,41.40
2018-10-12T13:07:14.791Z,43.20
2018-10-12T13:09:46.607Z,45.80
2018-10-12T13:12:18.661Z,47.20
2018-10-12T13:14:50.864Z,44.60
2018-10-12T13:17:22.854Z,47.20
2018-10-12T13:19:54.670Z,47.40
2018-10-12T13:22:26.742Z,52.20
2018-10-12T13:24:58.779Z,48.40
2018-10-12T13:27:30.835Z,51.00
2018-10-12T13:30:03.585Z,51.80
2018-10-12T13:32:35.183Z,53.60
2018-10-12T13:35:07.252Z,53.60
2018-10-12T13:37:39.962Z,54.80
2018-10-12T13:40:11.792Z,57.60
2018-10-12T13:42:43.332Z,54.80
2018-10-12T13:45:15.321Z,56.00
2018-10-12T13:47:47.004Z,60.00
2018-10-12T13:50:18.828Z,64.20
2018-10-12T13:52:50.887Z,64.20
2018-10-12T13:55:22.987Z,73.60
2018-10-12T13:57:54.791Z,70.80
2018-10-12T14:00:26.964Z,71.60
2018-10-12T14:02:59.142Z,74.80
2018-10-12T14:05:30.996Z,76.40
2018-10-12T14:08:03.015Z,66.40
2018-10-12T14:10:35.068Z,77.40
2018-10-12T14:13:07.772Z,69.00
2018-10-12T14:15:39.578Z,61.00
2018-10-12T14:18:11.827Z,63.20
2018-10-12T14:20:44.642Z,72.60
2018-10-12T14:23:16.407Z,72.40
2018-10-12T14:25:48.282Z,70.40
2018-10-12T14:28:20.215Z,68.60
2018-10-12T14:30:51.935Z,68.40
2018-10-12T14:33:23.922Z,73.60
2018-10-12T14:35:55.785Z,71.60
2018-10-12T14:38:28.622Z,79.40
2018-10-12T14:41:00.523Z,80.80
2018-10-12T14:43:32.340Z,81.80
2018-10-12T14:46:04.042Z,83.00
2018-10-12T14:48:36.107Z,86.00
2018-10-12T14:51:08.338Z,83.40
2018-10-12T14:53:40.007Z,75.80
2018-10-12T14:56:11.934Z,89.80
2018-10-12T14:58:43.988Z,92.00
2018-10-12T15:01:15.964Z,89.20
2018-10-12T15:03:47.947Z,91.60
2018-10-12T15:06:19.743Z,97.00
2018-10-12T15:08:51.400Z,90.40
2018-10-12T15:11:23.164Z,97.80
2018-10-12T15:13:54.987Z,87.60
2018-10-12T15:16:26.781Z,94.20
2018-10-12T15:18:58.777Z,93.40
2018-10-12T15:21:30.465Z,90.00
2018-10-12T15:24:02.625Z,91.40
2018-10-12T15:26:34.670Z,92.40
2018-10-12T15:29:06.465Z,86.80
2018-10-12T15:31:38.353Z,93.60
2018-10-12T15:34:09.943Z,93.20
2018-10-12T15:36:41.506Z,90.00
2018-10-12T15:39:13.624Z,78.40
2018-10-12T15:41:45.562Z,57.80
2018-10-12T15:44:17.619Z,67.20
2018-10-12T15:46:49.387Z,74.20
2018-10-12T15:49:21.269Z,77.00
2018-10-12T15:51:53.170Z,85.60
2018-10-12T15:54:24.864Z,89.60
2018-10-12T15:56:57.830Z,90.20
2018-10-12T15:59:29.596Z,93.40
2018-10-12T16:02:01.456Z,99.40
2018-10-12T16:04:33.507Z,94.00
2018-10-12T16:07:05.355Z,93.00
2018-10-12T16:09:37.064Z,91.00
2018-10-12T16:12:08.645Z,91.60
2018-10-12T16:14:40.625Z,89.20
2018-10-12T16:18:37.115Z,83.80
2018-10-12T16:21:09.572Z,80.60
2018-10-12T16:23:41.452Z,93.80
2018-10-12T16:26:21.685Z,96.00
2018-10-12T16:28:53.620Z,91.80
2018-10-12T16:31:25.716Z,90.80
2018-10-12T16:33:57.356Z,91.40
2018-10-12T16:36:29.418Z,96.00
2018-10-12T16:39:01.538Z,90.00
2018-10-12T16:41:33.334Z,89.80
2018-10-12T16:44:05.298Z,86.60
2018-10-12T16:46:37.294Z,92.20
2018-10-12T16:49:09.258Z,93.40
2018-10-12T16:51:41.374Z,89.60
2018-10-12T16:54:13.046Z,85.60
2018-10-12T16:56:45.128Z,94.80
2018-10-12T16:59:16.979Z,75.80
2018-10-12T17:01:49.068Z,85.00
2018-10-12T17:04:21.193Z,90.00
2018-10-12T17:06:53.131Z,91.00
2018-10-12T17:09:24.714Z,85.00
2018-10-12T17:11:56.934Z,84.00
2018-10-12T17:14:29.201Z,87.20
2018-10-12T17:17:01.327Z,86.60
2018-10-12T17:19:33.305Z,79.00
2018-10-12T17:22:05.191Z,85.60
2018-10-12T17:24:37.143Z,79.60
2018-10-12T17:27:09.045Z,79.60
2018-10-12T17:29:40.676Z,80.60
2018-10-12T17:32:12.547Z,89.40
2018-10-12T17:34:44.032Z,89.60
2018-10-12T17:37:16.050Z,73.00
2018-10-12T17:39:47.556Z,74.40
2018-10-12T17:42:20.484Z,78.60
2018-10-12T17:44:52.142Z,80.40
2018-10-12T17:47:24.323Z,77.40
2018-10-12T17:49:56.031Z,83.40
2018-10-12T17:52:27.821Z,69.20
2018-10-12T17:54:59.606Z,76.80
2018-10-12T17:57:31.522Z,75.00
2018-10-12T18:00:03.423Z,88.20
2018-10-12T18:02:35.488Z,75.20
2018-10-12T18:05:07.236Z,81.60
2018-10-12T18:07:39.365Z,77.40
2018-10-12T18:10:12.296Z,79.60
2018-10-12T18:12:44.396Z,87.80
2018-10-12T18:15:16.721Z,73.20
2018-10-12T18:17:48.530Z,85.00
2018-10-12T18:20:20.372Z,84.60
2018-10-12T18:22:52.487Z,82.20
2018-10-12T18:25:24.114Z,84.80
2018-10-12T18:27:56.143Z,85.80
2018-10-12T18:30:28.142Z,89.20
2018-10-12T18:33:00.148Z,81.80
2018-10-12T18:35:32.060Z,88.00
2018-10-12T18:38:04.058Z,90.40
2018-10-12T18:40:36.373Z,92.80
2018-10-12T18:43:08.789Z,91.80
2018-10-12T18:45:40.864Z,97.60
2018-10-12T18:48:12.954Z,84.20
2018-10-12T18:50:44.565Z,92.40
2018-10-12T18:53:16.412Z,95.60
2018-10-12T18:55:48.439Z,95.40
2018-10-12T18:58:20.469Z,89.60
2018-10-12T19:00:52.297Z,94.80
2018-10-12T19:03:24.250Z,83.20
2018-10-12T19:05:56.063Z,90.20
2018-10-12T19:08:28.238Z,89.80
2018-10-12T19:10:59.971Z,86.20
2018-10-12T19:13:32.182Z,92.40
2018-10-12T19:16:03.972Z,96.20
2018-10-12T19:18:36.099Z,91.40
2018-10-12T19:21:07.902Z,89.40
2018-10-12T19:23:40.128Z,92.60
2018-10-12T19:26:11.992Z,84.60
2018-10-12T19:28:43.837Z,87.00
2018-10-12T19:31:15.507Z,93.80
2018-10-12T19:33:47.494Z,86.60
2018-10-12T19:36:19.434Z,96.80
2018-10-12T19:38:51.257Z,89.60
2018-10-12T19:41:23.512Z,86.00
2018-10-12T19:43:55.644Z,90.00
2018-10-12T19:46:27.559Z,84.00
2018-10-12T19:48:59.649Z,86.40
2018-10-12T19:51:31.443Z,83.60
2018-10-12T19:54:03.254Z,84.20
2018-10-12T19:56:34.917Z,81.20
2018-10-12T19:59:06.848Z,78.80
2018-10-12T20:01:39.371Z,76.00
2018-10-12T20:04:11.578Z,85.20
2018-10-12T20:06:44.191Z,90.80
2018-10-12T20:09:15.987Z,86.60
2018-10-12T20:11:47.759Z,87.60
2018-10-12T20:14:19.832Z,82.60
2018-10-12T20:16:51.920Z,84.60
2018-10-12T20:19:23.931Z,80.20
2018-10-12T20:21:56.016Z,81.80
2018-10-12T20:24:27.793Z,88.60
2018-10-12T20:26:59.694Z,83.80
2018-10-12T20:29:31.639Z,94.20
2018-10-12T20:32:03.709Z,89.80
2018-10-12T20:34:35.663Z,88.00
2018-10-12T20:37:07.616Z,83.20
2018-10-12T20:39:39.542Z,86.00
2018-10-12T20:42:11.021Z,102.20
2018-10-12T20:44:43.083Z,87.00
2018-10-12T20:47:14.998Z,101.60
2018-10-12T20:49:47.099Z,100.80
2018-10-12T20:52:19.134Z,100.40
2018-10-12T20:54:51.272Z,92.00
2018-10-12T20:57:23.208Z,93.20
2018-10-12T20:59:55.381Z,96.60
2018-10-12T21:02:28.540Z,100.80
2018-10-12T21:05:00.772Z,98.00
2018-10-12T21:07:32.461Z,95.80
2018-10-12T21:10:04.668Z,94.60
2018-10-12T21:12:36.846Z,97.60
2018-10-12T21:15:09.033Z,90.40
2018-10-12T21:17:41.174Z,99.00
2018-10-12T21:20:13.294Z,89.80
2018-10-12T21:22:45.396Z,84.80
2018-10-12T21:25:17.419Z,95.60
2018-10-12T21:27:49.499Z,78.40
2018-10-12T21:30:21.489Z,85.00
2018-10-12T21:32:53.721Z,84.20
2018-10-12T21:35:26.317Z,93.40
2018-10-12T21:37:58.084Z,88.60
2018-10-12T21:40:29.780Z,98.00
2018-10-12T21:43:01.516Z,102.80
2018-10-12T21:45:33.227Z,105.40
2018-10-12T21:48:04.974Z,96.80
2018-10-12T21:50:37.111Z,97.80
2018-10-12T21:53:09.149Z,96.80
2018-10-12T21:55:41.451Z,93.80
2018-10-12T21:58:13.332Z,96.80
2018-10-12T22:00:50.002Z,93.20
2018-10-12T22:03:22.852Z,89.80
2018-10-12T22:05:54.912Z,94.00
2018-10-12T22:08:31.181Z,97.00
2018-10-12T22:11:03.326Z,90.40
2018-10-12T22:13:35.275Z,88.80
2018-10-12T22:16:07.070Z,96.00
2018-10-12T22:18:38.503Z,97.20
2018-10-12T22:21:10.437Z,91.80
2018-10-12T22:23:42.202Z,96.60
2018-10-12T22:26:14.202Z,84.20
2018-10-12T22:28:46.506Z,94.60
2018-10-12T22:31:19.027Z,84.00
2018-10-12T22:33:50.827Z,94.80
2018-10-12T22:36:23.029Z,93.60
2018-10-12T22:38:54.667Z,88.60
2018-10-12T22:41:26.734Z,81.00
2018-10-12T22:43:59.644Z,85.40
2018-10-12T22:46:31.483Z,83.60
2018-10-12T22:49:03.534Z,76.80
2018-10-12T22:51:35.286Z,83.60
2018-10-12T22:54:07.355Z,84.20
2018-10-12T22:56:39.443Z,83.00
2018-10-12T22:59:11.206Z,78.20
2018-10-12T23:01:43.120Z,82.80
2018-10-12T23:04:16.330Z,70.80
2018-10-12T23:06:48.237Z,83.40
2018-10-12T23:09:20.186Z,79.20
2018-10-12T23:11:52.289Z,83.80
2018-10-12T23:14:24.143Z,74.60
2018-10-12T23:16:55.900Z,82.60
2018-10-12T23:19:27.724Z,75.40
2018-10-12T23:21:59.809Z,80.60
2018-10-12T23:24:31.665Z,80.80
2018-10-12T23:27:03.694Z,80.20
2018-10-12T23:29:36.096Z,91.00
2018-10-12T23:32:08.711Z,91.40
2018-10-12T23:34:40.702Z,90.40
2018-10-12T23:37:12.510Z,88.20
2018-10-12T23:39:44.437Z,83.40
2018-10-12T23:42:16.333Z,88.20
2018-10-12T23:44:48.296Z,93.60
2018-10-12T23:47:20.536Z,91.20
2018-10-12T23:49:52.694Z,94.60
2018-10-12T23:52:24.328Z,97.60
2018-10-12T23:54:56.228Z,94.20
2018-10-12T23:57:28.337Z,96.60
